createdAt,value
2022-11-26T00:00:51.862Z,1001.13
2022-11-26T00:01:51.856Z,1001.21
2022-11-26T00:02:51.964Z,1001.21
2022-11-26T00:03:51.814Z,1001.19
2022-11-26T00:04:51.810Z,1001.21
2022-11-26T00:05:51.802Z,1001.24
2022-11-26T00:06:51.790Z,1001.27
2022-11-26T00:07:51.815Z,1001.29
2022-11-26T00:08:51.785Z,1001.31
2022-11-26T00:09:51.767Z,1001.28
2022-11-26T00:10:51.761Z,1001.31
2022-11-26T00:11:51.755Z,1001.28
2022-11-26T00:12:51.735Z,1001.24
2022-11-26T00:13:51.786Z,1001.29
2022-11-26T00:14:51.725Z,1001.30
2022-11-26T00:15:51.716Z,1001.24
2022-11-26T00:16:52.058Z,1001.31
2022-11-26T00:17:52.494Z,1001.39
2022-11-26T00:18:51.687Z,1001.40
2022-11-26T00:19:51.687Z,1001.35
2022-11-26T00:20:51.664Z,1001.32
2022-11-26T00:21:52.689Z,1001.36
2022-11-26T00:22:51.684Z,1001.45
2022-11-26T00:23:53.486Z,1001.37
2022-11-26T00:24:51.647Z,1001.43
2022-11-26T00:25:51.637Z,1001.45
2022-11-26T00:26:51.618Z,1001.44
2022-11-26T00:28:36.332Z,1001.48
2022-11-26T00:29:36.349Z,1001.43
2022-11-26T00:30:36.328Z,1001.43
2022-11-26T00:31:36.405Z,1001.41
2022-11-26T00:32:36.305Z,1001.43
2022-11-26T00:33:36.296Z,1001.45
2022-11-26T00:34:36.685Z,1001.45
2022-11-26T00:35:36.280Z,1001.48
2022-11-26T00:36:36.272Z,1001.52
2022-11-26T00:37:36.270Z,1001.58
2022-11-26T00:38:36.253Z,1001.56
2022-11-26T00:39:36.253Z,1001.55
2022-11-26T00:40:36.237Z,1001.58
2022-11-26T00:41:36.242Z,1001.59
2022-11-26T00:42:36.225Z,1001.61
2022-11-26T00:43:36.210Z,1001.59
2022-11-26T00:44:36.615Z,1001.62
2022-11-26T00:45:36.308Z,1001.59
2022-11-26T00:46:37.285Z,1001.60
2022-11-26T00:47:37.765Z,1001.58
2022-11-26T00:48:37.306Z,1001.59
2022-11-26T00:49:37.254Z,1001.64
2022-11-26T00:50:37.249Z,1001.57
2022-11-26T00:51:37.251Z,1001.61
2022-11-26T00:52:37.258Z,1001.63
2022-11-26T00:53:37.222Z,1001.61
2022-11-26T00:54:38.473Z,1001.65
2022-11-26T00:55:37.215Z,1001.65
2022-11-26T00:56:38.314Z,1001.68
2022-11-26T00:58:44.496Z,1001.65
2022-11-26T00:59:44.490Z,1001.78
2022-11-26T01:00:44.485Z,1001.73
2022-11-26T01:01:45.668Z,1001.70
2022-11-26T01:02:45.621Z,1001.72
2022-11-26T01:03:45.562Z,1001.76
2022-11-26T01:04:45.526Z,1001.77
2022-11-26T01:05:45.513Z,1001.83
2022-11-26T01:06:45.505Z,1001.83
2022-11-26T01:07:45.595Z,1001.83
2022-11-26T01:08:45.497Z,1001.88
2022-11-26T01:09:45.492Z,1001.90
2022-11-26T01:10:46.520Z,1001.94
2022-11-26T01:11:47.847Z,1001.95
2022-11-26T01:12:45.477Z,1001.90
2022-11-26T01:13:45.462Z,1001.91
2022-11-26T01:14:45.450Z,1001.95
2022-11-26T01:15:45.465Z,1001.95
2022-11-26T01:16:46.458Z,1001.95
2022-11-26T01:17:45.424Z,1001.98
2022-11-26T01:18:45.424Z,1001.97
2022-11-26T01:19:45.420Z,1002.00
2022-11-26T01:20:45.406Z,1002.00
2022-11-26T01:21:45.391Z,1001.97
2022-11-26T01:22:45.394Z,1001.98
2022-11-26T01:23:45.394Z,1001.95
2022-11-26T01:24:45.379Z,1002.05
2022-11-26T01:25:45.400Z,1002.08
2022-11-26T01:26:45.352Z,1002.09
2022-11-26T01:27:45.341Z,1002.11
2022-11-26T01:28:45.357Z,1002.11
2022-11-26T01:29:45.325Z,1002.14
2022-11-26T01:30:45.319Z,1002.09
2022-11-26T01:31:45.384Z,1002.13
2022-11-26T01:32:45.312Z,1002.14
2022-11-26T01:33:45.290Z,1002.20
2022-11-26T01:34:45.383Z,1002.10
2022-11-26T01:35:45.288Z,1002.19
2022-11-26T01:36:45.275Z,1002.21
2022-11-26T01:37:45.269Z,1002.20
2022-11-26T01:38:45.250Z,1002.21
2022-11-26T01:39:45.441Z,1002.21
2022-11-26T01:40:45.228Z,1002.25
2022-11-26T01:41:45.223Z,1002.24
2022-11-26T01:42:45.219Z,1002.27
2022-11-26T01:43:45.203Z,1002.21
2022-11-26T01:44:46.208Z,1002.25
2022-11-26T01:45:45.283Z,1002.24
2022-11-26T01:46:45.191Z,1002.22
2022-11-26T01:47:45.210Z,1002.23
2022-11-26T01:48:45.164Z,1002.27
2022-11-26T01:49:45.163Z,1002.32
2022-11-26T01:50:45.160Z,1002.34
2022-11-26T01:51:45.849Z,1002.32
2022-11-26T01:52:45.135Z,1002.30
2022-11-26T01:53:45.129Z,1002.34
2022-11-26T01:54:46.371Z,1002.40
2022-11-26T01:55:46.940Z,1002.33
2022-11-26T01:56:45.098Z,1002.35
2022-11-26T01:57:46.855Z,1002.42
2022-11-26T01:58:45.090Z,1002.43
2022-11-26T01:59:45.352Z,1002.36
2022-11-26T02:00:45.119Z,1002.38
2022-11-26T02:01:46.085Z,1002.40
2022-11-26T02:02:47.970Z,1002.36
2022-11-26T02:03:45.919Z,1002.41
2022-11-26T02:04:45.032Z,1002.44
2022-11-26T02:05:45.038Z,1002.40
2022-11-26T02:06:46.013Z,1002.42
2022-11-26T02:07:46.015Z,1002.41
2022-11-26T02:08:45.031Z,1002.37
2022-11-26T02:09:47.921Z,1002.43
2022-11-26T02:10:44.999Z,1002.37
2022-11-26T02:11:44.990Z,1002.39
2022-11-26T02:12:45.963Z,1002.39
2022-11-26T02:13:44.963Z,1002.42
2022-11-26T02:14:44.970Z,1002.43
2022-11-26T02:15:44.936Z,1002.47
2022-11-26T02:16:44.953Z,1002.47
2022-11-26T02:17:44.921Z,1002.48
2022-11-26T02:18:44.919Z,1002.49
2022-11-26T02:19:44.911Z,1002.50
2022-11-26T02:20:44.905Z,1002.53
2022-11-26T02:21:44.902Z,1002.53
2022-11-26T02:22:44.872Z,1002.54
2022-11-26T02:23:44.874Z,1002.54
2022-11-26T02:24:44.872Z,1002.53
2022-11-26T02:25:44.865Z,1002.54
2022-11-26T02:26:45.428Z,1002.53
2022-11-26T02:27:45.848Z,1002.59
2022-11-26T02:28:44.833Z,1002.59
2022-11-26T02:29:45.355Z,1002.59
2022-11-26T02:30:44.953Z,1002.59
2022-11-26T02:31:44.877Z,1002.62
2022-11-26T02:32:44.794Z,1002.67
2022-11-26T02:33:44.788Z,1002.67
2022-11-26T02:34:44.992Z,1002.69
2022-11-26T02:35:44.779Z,1002.67
2022-11-26T02:36:44.773Z,1002.71
2022-11-26T02:37:44.756Z,1002.74
2022-11-26T02:38:44.747Z,1002.78
2022-11-26T02:39:44.750Z,1002.75
2022-11-26T02:40:44.745Z,1002.76
2022-11-26T02:41:44.730Z,1002.82
2022-11-26T02:42:44.727Z,1002.81
2022-11-26T02:43:44.709Z,1002.84
2022-11-26T02:44:45.451Z,1002.82
2022-11-26T02:45:44.765Z,1002.88
2022-11-26T02:46:44.686Z,1002.88
2022-11-26T02:47:44.678Z,1002.90
2022-11-26T02:48:44.671Z,1002.95
2022-11-26T02:49:44.944Z,1002.91
2022-11-26T02:50:45.355Z,1003.00
2022-11-26T02:51:44.642Z,1002.99
2022-11-26T02:52:44.669Z,1003.04
2022-11-26T02:53:44.632Z,1003.04
2022-11-26T02:54:44.633Z,1003.00
2022-11-26T02:55:44.610Z,1003.09
2022-11-26T02:56:44.602Z,1003.08
2022-11-26T02:57:46.425Z,1003.12
2022-11-26T02:58:45.590Z,1003.10
2022-11-26T02:59:44.596Z,1003.06
2022-11-26T21:27:45.768Z,1006.62
2022-11-26T21:28:45.745Z,1006.69
2022-11-26T21:29:45.736Z,1006.70
2022-11-26T21:30:46.124Z,1006.69
2022-11-26T21:31:45.721Z,1006.63
2022-11-26T21:32:45.713Z,1006.67
2022-11-26T21:33:45.702Z,1006.63
2022-11-26T21:34:46.807Z,1006.68
2022-11-26T21:35:46.786Z,1006.68
2022-11-26T21:36:46.790Z,1006.68
2022-11-26T21:37:46.772Z,1006.66
2022-11-26T21:38:46.765Z,1006.68
2022-11-26T21:39:46.750Z,1006.68
2022-11-26T21:40:46.753Z,1006.68
2022-11-26T21:41:46.736Z,1006.65
2022-11-26T21:42:46.724Z,1006.67
2022-11-26T21:43:46.746Z,1006.68
2022-11-26T21:44:46.707Z,1006.70
2022-11-26T21:45:47.681Z,1006.68
2022-11-26T21:46:46.737Z,1006.61
2022-11-26T21:47:46.729Z,1006.63
2022-11-26T21:48:46.676Z,1006.65
2022-11-26T21:49:46.672Z,1006.67
2022-11-26T21:50:46.700Z,1006.70
2022-11-26T21:51:46.655Z,1006.66
2022-11-26T21:52:46.643Z,1006.66
2022-11-26T21:53:46.655Z,1006.67
2022-11-26T21:54:47.687Z,1006.69
2022-11-26T21:55:46.631Z,1006.70
2022-11-26T21:56:46.717Z,1006.69
2022-11-26T21:57:46.607Z,1006.69
2022-11-26T21:58:47.607Z,1006.70
2022-11-26T21:59:46.590Z,1006.72
2022-11-26T22:00:46.678Z,1006.63
2022-11-26T22:01:46.641Z,1006.62
2022-11-26T22:02:46.626Z,1006.58
2022-11-26T22:03:46.561Z,1006.57
2022-11-26T22:04:46.551Z,1006.53
2022-11-26T22:05:46.563Z,1006.58
2022-11-26T22:06:46.536Z,1006.51
2022-11-26T22:07:46.587Z,1006.49
2022-11-26T22:08:46.520Z,1006.54
2022-11-26T22:09:46.534Z,1006.56
2022-11-26T22:10:46.510Z,1006.57
2022-11-26T22:11:46.496Z,1006.59
2022-11-26T22:12:46.501Z,1006.64
2022-11-26T22:13:46.499Z,1006.65
2022-11-26T22:14:46.486Z,1006.62
2022-11-26T22:15:46.618Z,1006.62
2022-11-26T22:16:46.466Z,1006.65
2022-11-26T22:17:46.450Z,1006.61
2022-11-26T22:18:46.466Z,1006.63
2022-11-26T22:19:46.450Z,1006.70
2022-11-26T22:20:46.432Z,1006.67
2022-11-26T22:21:47.187Z,1006.65
2022-11-26T22:22:47.103Z,1006.63
2022-11-26T22:23:46.421Z,1006.70
2022-11-26T22:24:46.409Z,1006.65
2022-11-26T22:25:46.405Z,1006.68
2022-11-26T22:26:46.381Z,1006.65
2022-11-26T22:27:46.372Z,1006.65
2022-11-26T22:28:46.369Z,1006.71
2022-11-26T22:29:46.358Z,1006.72
2022-11-26T22:30:47.186Z,1006.68
2022-11-26T22:31:46.376Z,1006.73
2022-11-26T22:32:46.334Z,1006.68
2022-11-26T22:33:46.332Z,1006.69
2022-11-26T22:34:46.329Z,1006.65
2022-11-26T22:35:46.354Z,1006.63
2022-11-26T22:36:46.302Z,1006.65
2022-11-26T22:37:46.291Z,1006.57
2022-11-26T22:38:47.275Z,1006.53
2022-11-26T22:39:49.891Z,1006.52
2022-11-26T22:40:48.271Z,1006.51
2022-11-26T22:41:46.364Z,1006.47
2022-11-26T22:42:46.259Z,1006.40
2022-11-26T22:43:46.243Z,1006.42
2022-11-26T22:44:46.242Z,1006.38
2022-11-26T22:45:46.295Z,1006.34
2022-11-26T22:46:46.234Z,1006.33
2022-11-26T22:47:50.008Z,1006.27
2022-11-26T22:48:48.203Z,1006.31
2022-11-26T22:49:47.204Z,1006.36
2022-11-26T22:50:46.203Z,1006.35
2022-11-26T22:51:46.190Z,1006.37
2022-11-26T22:52:46.186Z,1006.37
2022-11-26T22:53:46.159Z,1006.32
2022-11-26T22:54:46.153Z,1006.32
2022-11-26T22:55:46.163Z,1006.36
2022-11-26T22:56:46.144Z,1006.36
2022-11-26T22:57:46.174Z,1006.38
2022-11-26T22:58:46.138Z,1006.37
2022-11-26T22:59:46.683Z,1006.36
2022-11-26T23:00:46.104Z,1006.38
2022-11-26T23:01:46.098Z,1006.38
2022-11-26T23:02:46.236Z,1006.37
2022-11-26T23:03:46.837Z,1006.34
2022-11-26T23:04:46.079Z,1006.38
2022-11-26T23:05:46.061Z,1006.38
2022-11-26T23:06:47.635Z,1006.33
2022-11-26T23:07:46.100Z,1006.30
2022-11-26T23:08:46.042Z,1006.34
2022-11-26T23:09:47.109Z,1006.25
2022-11-26T23:10:47.063Z,1006.30
2022-11-26T23:11:46.047Z,1006.26
2022-11-26T23:12:46.010Z,1006.20
2022-11-26T23:13:46.086Z,1006.16
2022-11-26T23:14:46.024Z,1006.17
2022-11-26T23:15:45.985Z,1006.17
2022-11-26T23:16:56.071Z,1006.15
2022-11-26T23:17:45.974Z,1006.12
2022-11-26T23:18:45.989Z,1006.06
2022-11-26T23:19:45.968Z,1006.10
2022-11-26T23:20:45.946Z,1006.15
2022-11-26T23:21:45.955Z,1006.16
2022-11-26T23:22:46.694Z,1006.11
2022-11-26T23:23:46.613Z,1006.13
2022-11-26T23:24:45.927Z,1006.08
2022-11-26T23:25:45.913Z,1005.94
2022-11-26T23:26:45.916Z,1005.97
2022-11-26T23:27:45.890Z,1005.91
2022-11-26T23:28:45.901Z,1005.91
2022-11-26T23:29:45.900Z,1005.83
2022-11-26T23:30:45.872Z,1005.84
2022-11-26T23:31:45.940Z,1005.82
2022-11-26T23:32:45.933Z,1005.82
2022-11-26T23:33:45.878Z,1005.80
2022-11-26T23:34:46.663Z,1005.81
2022-11-26T23:35:45.897Z,1005.82
2022-11-26T23:36:45.843Z,1005.83
2022-11-26T23:37:46.690Z,1005.80
2022-11-26T23:38:45.823Z,1005.81
2022-11-26T23:39:45.819Z,1005.82
2022-11-26T23:40:45.829Z,1005.83
2022-11-26T23:41:45.795Z,1005.77
2022-11-26T23:42:45.788Z,1005.80
2022-11-26T23:43:45.824Z,1005.75
2022-11-26T23:44:45.774Z,1005.73
2022-11-26T23:45:45.780Z,1005.72
2022-11-26T23:46:45.789Z,1005.75
2022-11-26T23:47:45.759Z,1005.70
2022-11-26T23:48:45.738Z,1005.76
2022-11-26T23:49:45.730Z,1005.70
2022-11-26T23:50:45.723Z,1005.70
2022-11-26T23:51:47.697Z,1005.65
2022-11-26T23:52:45.707Z,1005.64
2022-11-26T23:53:45.689Z,1005.60
2022-11-26T23:54:45.679Z,1005.65
2022-11-26T23:55:45.672Z,1005.65
2022-11-26T23:56:45.677Z,1005.62
2022-11-26T23:57:45.652Z,1005.62
2022-11-26T23:58:45.659Z,1005.66
2022-11-26T23:59:45.649Z,1005.63
